sensor_id;sensor_type;location;lat;lon;timestamp;P1;durP1;ratioP1;P2;durP2;ratioP2
62654;SDS011;48717;55.556;37.816;2023-07-08T00:00:43;29.38;;;17.92;;
62654;SDS011;48717;55.556;37.816;2023-07-08T00:03:14;27.20;;;18.52;;
62654;SDS011;48717;55.556;37.816;2023-07-08T00:05:42;25.55;;;17.80;;
62654;SDS011;48717;55.556;37.816;2023-07-08T00:08:17;25.23;;;16.45;;
62654;SDS011;48717;55.556;37.816;2023-07-08T00:10:46;25.55;;;16.65;;
62654;SDS011;48717;55.556;37.816;2023-07-08T00:13:15;25.83;;;16.58;;
62654;SDS011;48717;55.556;37.816;2023-07-08T00:15:50;28.40;;;17.88;;
62654;SDS011;48717;55.556;37.816;2023-07-08T00:18:18;27.90;;;16.58;;
62654;SDS011;48717;55.556;37.816;2023-07-08T00:20:48;21.27;;;15.43;;
62654;SDS011;48717;55.556;37.816;2023-07-08T00:23:30;24.33;;;16.10;;
62654;SDS011;48717;55.556;37.816;2023-07-08T00:25:58;25.45;;;16.08;;
62654;SDS011;48717;55.556;37.816;2023-07-08T00:28:26;23.42;;;16.35;;
62654;SDS011;48717;55.556;37.816;2023-07-08T00:31:01;24.00;;;15.18;;
62654;SDS011;48717;55.556;37.816;2023-07-08T00:33:39;24.65;;;15.00;;
62654;SDS011;48717;55.556;37.816;2023-07-08T00:36:13;36.35;;;24.05;;
62654;SDS011;48717;55.556;37.816;2023-07-08T00:38:41;21.08;;;14.68;;
62654;SDS011;48717;55.556;37.816;2023-07-08T00:41:24;21.40;;;14.27;;
62654;SDS011;48717;55.556;37.816;2023-07-08T00:43:55;23.35;;;15.05;;
62654;SDS011;48717;55.556;37.816;2023-07-08T00:51:39;25.77;;;15.23;;
62654;SDS011;48717;55.556;37.816;2023-07-08T00:56:47;27.15;;;15.60;;
62654;SDS011;48717;55.556;37.816;2023-07-08T00:59:33;25.38;;;15.38;;
62654;SDS011;48717;55.556;37.816;2023-07-08T01:02:08;28.63;;;16.23;;
62654;SDS011;48717;55.556;37.816;2023-07-08T01:04:43;24.77;;;16.55;;
62654;SDS011;48717;55.556;37.816;2023-07-08T01:07:38;25.08;;;15.50;;
62654;SDS011;48717;55.556;37.816;2023-07-08T01:13:40;24.00;;;15.10;;
62654;SDS011;48717;55.556;37.816;2023-07-08T01:16:37;24.65;;;15.65;;
62654;SDS011;48717;55.556;37.816;2023-07-08T01:19:04;22.48;;;15.45;;
62654;SDS011;48717;55.556;37.816;2023-07-08T01:21:37;23.50;;;15.40;;
62654;SDS011;48717;55.556;37.816;2023-07-08T01:24:08;21.42;;;14.85;;
62654;SDS011;48717;55.556;37.816;2023-07-08T01:26:39;22.00;;;15.23;;
62654;SDS011;48717;55.556;37.816;2023-07-08T01:29:08;24.60;;;16.70;;
62654;SDS011;48717;55.556;37.816;2023-07-08T01:31:36;21.13;;;16.08;;
62654;SDS011;48717;55.556;37.816;2023-07-08T01:34:18;26.20;;;15.98;;
62654;SDS011;48717;55.556;37.816;2023-07-08T01:36:51;24.85;;;16.38;;
62654;SDS011;48717;55.556;37.816;2023-07-08T01:39:21;28.33;;;16.98;;
62654;SDS011;48717;55.556;37.816;2023-07-08T01:41:50;23.63;;;16.00;;
62654;SDS011;48717;55.556;37.816;2023-07-08T01:44:28;23.33;;;16.23;;
62654;SDS011;48717;55.556;37.816;2023-07-08T01:47:08;24.73;;;14.85;;
62654;SDS011;48717;55.556;37.816;2023-07-08T01:49:42;23.83;;;15.27;;
62654;SDS011;48717;55.556;37.816;2023-07-08T01:52:11;24.17;;;14.52;;
62654;SDS011;48717;55.556;37.816;2023-07-08T01:54:40;20.17;;;14.50;;
62654;SDS011;48717;55.556;37.816;2023-07-08T01:57:07;17.30;;;13.02;;
62654;SDS011;48717;55.556;37.816;2023-07-08T01:59:35;24.20;;;16.92;;
62654;SDS011;48717;55.556;37.816;2023-07-08T02:02:02;29.67;;;19.35;;
62654;SDS011;48717;55.556;37.816;2023-07-08T02:04:29;19.15;;;13.13;;
62654;SDS011;48717;55.556;37.816;2023-07-08T02:06:58;17.33;;;12.60;;
62654;SDS011;48717;55.556;37.816;2023-07-08T02:09:26;17.35;;;12.65;;
62654;SDS011;48717;55.556;37.816;2023-07-08T02:11:54;18.75;;;12.82;;
62654;SDS011;48717;55.556;37.816;2023-07-08T02:14:22;16.23;;;11.82;;
62654;SDS011;48717;55.556;37.816;2023-07-08T02:16:50;15.55;;;11.23;;
62654;SDS011;48717;55.556;37.816;2023-07-08T02:19:18;17.15;;;11.73;;
62654;SDS011;48717;55.556;37.816;2023-07-08T02:21:46;18.13;;;11.55;;
62654;SDS011;48717;55.556;37.816;2023-07-08T02:24:13;16.65;;;11.52;;
62654;SDS011;48717;55.556;37.816;2023-07-08T02:26:43;17.25;;;11.10;;
62654;SDS011;48717;55.556;37.816;2023-07-08T02:29:14;17.00;;;10.68;;
62654;SDS011;48717;55.556;37.816;2023-07-08T02:31:41;13.85;;;11.00;;
62654;SDS011;48717;55.556;37.816;2023-07-08T02:34:08;14.85;;;10.95;;
62654;SDS011;48717;55.556;37.816;2023-07-08T02:36:35;14.63;;;10.70;;
62654;SDS011;48717;55.556;37.816;2023-07-08T02:39:03;13.70;;;11.02;;
62654;SDS011;48717;55.556;37.816;2023-07-08T02:41:31;16.85;;;11.48;;
62654;SDS011;48717;55.556;37.816;2023-07-08T02:43:58;16.20;;;10.70;;
62654;SDS011;48717;55.556;37.816;2023-07-08T02:46:25;14.02;;;10.20;;
62654;SDS011;48717;55.556;37.816;2023-07-08T02:48:52;17.25;;;11.10;;
62654;SDS011;48717;55.556;37.816;2023-07-08T02:51:19;13.38;;;10.73;;
62654;SDS011;48717;55.556;37.816;2023-07-08T02:53:49;14.80;;;10.95;;
62654;SDS011;48717;55.556;37.816;2023-07-08T02:58:44;13.57;;;10.40;;
62654;SDS011;48717;55.556;37.816;2023-07-08T03:01:18;15.07;;;10.85;;
62654;SDS011;48717;55.556;37.816;2023-07-08T03:03:48;16.55;;;11.20;;
62654;SDS011;48717;55.556;37.816;2023-07-08T03:06:17;14.35;;;10.98;;
62654;SDS011;48717;55.556;37.816;2023-07-08T03:08:44;16.38;;;11.45;;
62654;SDS011;48717;55.556;37.816;2023-07-08T03:11:11;16.25;;;11.25;;
62654;SDS011;48717;55.556;37.816;2023-07-08T03:13:39;16.63;;;11.73;;
62654;SDS011;48717;55.556;37.816;2023-07-08T03:16:07;14.00;;;10.30;;
62654;SDS011;48717;55.556;37.816;2023-07-08T03:18:39;15.75;;;10.52;;
62654;SDS011;48717;55.556;37.816;2023-07-08T03:21:14;17.83;;;10.73;;
62654;SDS011;48717;55.556;37.816;2023-07-08T03:23:42;14.67;;;10.00;;
62654;SDS011;48717;55.556;37.816;2023-07-08T03:26:12;14.65;;;10.43;;
62654;SDS011;48717;55.556;37.816;2023-07-08T03:28:44;14.30;;;11.43;;
62654;SDS011;48717;55.556;37.816;2023-07-08T03:31:12;15.13;;;10.80;;
62654;SDS011;48717;55.556;37.816;2023-07-08T03:33:39;14.07;;;11.25;;
62654;SDS011;48717;55.556;37.816;2023-07-08T03:36:14;14.07;;;10.95;;
62654;SDS011;48717;55.556;37.816;2023-07-08T03:38:51;14.27;;;11.55;;
62654;SDS011;48717;55.556;37.816;2023-07-08T03:41:22;15.02;;;11.10;;
62654;SDS011;48717;55.556;37.816;2023-07-08T03:43:49;15.95;;;11.38;;
62654;SDS011;48717;55.556;37.816;2023-07-08T03:46:20;31.02;;;18.65;;
62654;SDS011;48717;55.556;37.816;2023-07-08T03:48:50;28.27;;;18.88;;
62654;SDS011;48717;55.556;37.816;2023-07-08T03:51:32;19.80;;;13.88;;
62654;SDS011;48717;55.556;37.816;2023-07-08T03:54:05;15.73;;;11.45;;
62654;SDS011;48717;55.556;37.816;2023-07-08T03:56:45;16.92;;;12.40;;
62654;SDS011;48717;55.556;37.816;2023-07-08T03:59:13;14.80;;;11.27;;
62654;SDS011;48717;55.556;37.816;2023-07-08T04:01:43;17.90;;;12.05;;
62654;SDS011;48717;55.556;37.816;2023-07-08T04:04:13;20.27;;;14.93;;
62654;SDS011;48717;55.556;37.816;2023-07-08T04:06:43;17.15;;;12.85;;
62654;SDS011;48717;55.556;37.816;2023-07-08T04:09:12;15.55;;;11.82;;
62654;SDS011;48717;55.556;37.816;2023-07-08T04:11:40;14.95;;;12.52;;
62654;SDS011;48717;55.556;37.816;2023-07-08T04:14:09;17.48;;;11.35;;
62654;SDS011;48717;55.556;37.816;2023-07-08T04:16:45;24.50;;;15.45;;
62654;SDS011;48717;55.556;37.816;2023-07-08T04:19:32;15.52;;;11.80;;
62654;SDS011;48717;55.556;37.816;2023-07-08T04:22:00;21.02;;;14.45;;
62654;SDS011;48717;55.556;37.816;2023-07-08T04:24:28;19.40;;;12.70;;
62654;SDS011;48717;55.556;37.816;2023-07-08T04:26:55;28.08;;;14.82;;
62654;SDS011;48717;55.556;37.816;2023-07-08T04:29:23;19.38;;;13.38;;
62654;SDS011;48717;55.556;37.816;2023-07-08T04:31:50;17.20;;;13.23;;
62654;SDS011;48717;55.556;37.816;2023-07-08T04:34:18;20.73;;;15.07;;
62654;SDS011;48717;55.556;37.816;2023-07-08T04:36:45;22.80;;;16.33;;
62654;SDS011;48717;55.556;37.816;2023-07-08T04:39:12;17.38;;;12.15;;
62654;SDS011;48717;55.556;37.816;2023-07-08T04:41:40;25.52;;;16.13;;
62654;SDS011;48717;55.556;37.816;2023-07-08T04:44:11;17.85;;;12.40;;
62654;SDS011;48717;55.556;37.816;2023-07-08T04:46:41;15.85;;;11.45;;
62654;SDS011;48717;55.556;37.816;2023-07-08T04:49:12;16.58;;;12.13;;
62654;SDS011;48717;55.556;37.816;2023-07-08T04:51:44;14.82;;;11.90;;
62654;SDS011;48717;55.556;37.816;2023-07-08T04:54:11;17.83;;;13.20;;
62654;SDS011;48717;55.556;37.816;2023-07-08T04:56:47;20.87;;;12.67;;
62654;SDS011;48717;55.556;37.816;2023-07-08T04:59:21;20.48;;;12.43;;
62654;SDS011;48717;55.556;37.816;2023-07-08T05:01:50;19.70;;;14.70;;
62654;SDS011;48717;55.556;37.816;2023-07-08T05:04:20;18.80;;;13.60;;
62654;SDS011;48717;55.556;37.816;2023-07-08T05:06:49;19.95;;;12.55;;
62654;SDS011;48717;55.556;37.816;2023-07-08T05:09:17;16.10;;;12.48;;
62654;SDS011;48717;55.556;37.816;2023-07-08T05:11:44;15.30;;;12.13;;
62654;SDS011;48717;55.556;37.816;2023-07-08T05:14:12;17.98;;;11.40;;
62654;SDS011;48717;55.556;37.816;2023-07-08T05:16:40;19.23;;;12.27;;
62654;SDS011;48717;55.556;37.816;2023-07-08T05:19:07;17.55;;;12.25;;
62654;SDS011;48717;55.556;37.816;2023-07-08T05:21:35;17.23;;;12.52;;
62654;SDS011;48717;55.556;37.816;2023-07-08T05:24:02;15.85;;;10.73;;
62654;SDS011;48717;55.556;37.816;2023-07-08T05:26:31;15.05;;;10.40;;
62654;SDS011;48717;55.556;37.816;2023-07-08T05:28:59;13.98;;;10.73;;
62654;SDS011;48717;55.556;37.816;2023-07-08T05:31:26;14.45;;;10.65;;
62654;SDS011;48717;55.556;37.816;2023-07-08T05:34:12;15.48;;;10.40;;
62654;SDS011;48717;55.556;37.816;2023-07-08T05:36:40;13.65;;;10.32;;
62654;SDS011;48717;55.556;37.816;2023-07-08T05:39:07;13.48;;;10.52;;
62654;SDS011;48717;55.556;37.816;2023-07-08T05:41:35;15.43;;;11.15;;
62654;SDS011;48717;55.556;37.816;2023-07-08T05:44:02;18.35;;;12.07;;
62654;SDS011;48717;55.556;37.816;2023-07-08T05:46:29;16.95;;;11.65;;
62654;SDS011;48717;55.556;37.816;2023-07-08T05:48:57;14.30;;;11.48;;
62654;SDS011;48717;55.556;37.816;2023-07-08T05:51:30;14.32;;;11.43;;
62654;SDS011;48717;55.556;37.816;2023-07-08T05:53:59;18.83;;;12.80;;
62654;SDS011;48717;55.556;37.816;2023-07-08T05:56:27;14.68;;;12.10;;
62654;SDS011;48717;55.556;37.816;2023-07-08T05:58:56;17.30;;;11.85;;
62654;SDS011;48717;55.556;37.816;2023-07-08T06:01:26;14.77;;;11.85;;
62654;SDS011;48717;55.556;37.816;2023-07-08T06:03:54;15.82;;;11.75;;
62654;SDS011;48717;55.556;37.816;2023-07-08T06:06:25;17.17;;;11.55;;
62654;SDS011;48717;55.556;37.816;2023-07-08T06:08:57;14.88;;;10.50;;
62654;SDS011;48717;55.556;37.816;2023-07-08T06:11:25;14.32;;;10.73;;
62654;SDS011;48717;55.556;37.816;2023-07-08T06:13:53;13.82;;;10.43;;
62654;SDS011;48717;55.556;37.816;2023-07-08T06:16:23;14.05;;;11.57;;
62654;SDS011;48717;55.556;37.816;2023-07-08T06:19:06;12.55;;;10.65;;
62654;SDS011;48717;55.556;37.816;2023-07-08T06:21:36;16.67;;;11.90;;
62654;SDS011;48717;55.556;37.816;2023-07-08T06:24:03;18.45;;;11.68;;
62654;SDS011;48717;55.556;37.816;2023-07-08T06:26:31;15.90;;;11.88;;
62654;SDS011;48717;55.556;37.816;2023-07-08T06:29:00;17.95;;;11.55;;
62654;SDS011;48717;55.556;37.816;2023-07-08T06:31:30;15.50;;;12.43;;
62654;SDS011;48717;55.556;37.816;2023-07-08T06:34:11;16.25;;;12.85;;
62654;SDS011;48717;55.556;37.816;2023-07-08T06:36:38;18.67;;;11.18;;
62654;SDS011;48717;55.556;37.816;2023-07-08T06:39:05;15.27;;;10.98;;
62654;SDS011;48717;55.556;37.816;2023-07-08T06:41:38;16.90;;;10.98;;
62654;SDS011;48717;55.556;37.816;2023-07-08T06:44:05;13.25;;;9.80;;
62654;SDS011;48717;55.556;37.816;2023-07-08T06:46:33;12.32;;;10.60;;
62654;SDS011;48717;55.556;37.816;2023-07-08T06:49:00;13.88;;;10.68;;
62654;SDS011;48717;55.556;37.816;2023-07-08T06:51:28;13.20;;;10.13;;
62654;SDS011;48717;55.556;37.816;2023-07-08T06:53:55;12.23;;;9.70;;
62654;SDS011;48717;55.556;37.816;2023-07-08T06:56:22;12.77;;;9.68;;
62654;SDS011;48717;55.556;37.816;2023-07-08T06:58:49;16.83;;;9.60;;
62654;SDS011;48717;55.556;37.816;2023-07-08T07:01:16;14.07;;;9.55;;
62654;SDS011;48717;55.556;37.816;2023-07-08T07:03:43;13.30;;;9.15;;
62654;SDS011;48717;55.556;37.816;2023-07-08T07:06:11;11.40;;;9.05;;
62654;SDS011;48717;55.556;37.816;2023-07-08T07:08:38;13.93;;;8.77;;
62654;SDS011;48717;55.556;37.816;2023-07-08T07:11:05;11.40;;;8.63;;
62654;SDS011;48717;55.556;37.816;2023-07-08T07:13:32;11.40;;;8.13;;
62654;SDS011;48717;55.556;37.816;2023-07-08T07:16:00;14.30;;;8.95;;
62654;SDS011;48717;55.556;37.816;2023-07-08T07:18:27;11.32;;;9.10;;
62654;SDS011;48717;55.556;37.816;2023-07-08T07:20:54;14.93;;;8.88;;
62654;SDS011;48717;55.556;37.816;2023-07-08T07:23:22;11.70;;;8.40;;
62654;SDS011;48717;55.556;37.816;2023-07-08T07:25:49;11.02;;;8.68;;
62654;SDS011;48717;55.556;37.816;2023-07-08T07:28:17;12.25;;;9.15;;
62654;SDS011;48717;55.556;37.816;2023-07-08T07:30:46;16.20;;;9.30;;
62654;SDS011;48717;55.556;37.816;2023-07-08T07:33:15;11.30;;;9.07;;
62654;SDS011;48717;55.556;37.816;2023-07-08T07:35:43;17.25;;;9.10;;
62654;SDS011;48717;55.556;37.816;2023-07-08T07:38:14;10.27;;;7.80;;
62654;SDS011;48717;55.556;37.816;2023-07-08T07:40:43;12.82;;;8.18;;
62654;SDS011;48717;55.556;37.816;2023-07-08T07:43:10;10.93;;;7.95;;
62654;SDS011;48717;55.556;37.816;2023-07-08T07:45:38;10.30;;;8.35;;
62654;SDS011;48717;55.556;37.816;2023-07-08T07:48:05;11.25;;;8.93;;
62654;SDS011;48717;55.556;37.816;2023-07-08T07:50:32;10.75;;;7.95;;
62654;SDS011;48717;55.556;37.816;2023-07-08T07:53:01;12.27;;;8.27;;
62654;SDS011;48717;55.556;37.816;2023-07-08T07:55:28;11.85;;;8.30;;
62654;SDS011;48717;55.556;37.816;2023-07-08T07:57:55;11.02;;;7.95;;
62654;SDS011;48717;55.556;37.816;2023-07-08T08:00:22;10.55;;;8.70;;
62654;SDS011;48717;55.556;37.816;2023-07-08T08:02:49;11.23;;;8.35;;
62654;SDS011;48717;55.556;37.816;2023-07-08T08:05:17;11.23;;;9.52;;
62654;SDS011;48717;55.556;37.816;2023-07-08T08:07:44;12.40;;;9.02;;
62654;SDS011;48717;55.556;37.816;2023-07-08T08:10:11;13.73;;;9.07;;
62654;SDS011;48717;55.556;37.816;2023-07-08T08:12:38;12.43;;;8.65;;
62654;SDS011;48717;55.556;37.816;2023-07-08T08:15:19;14.57;;;9.05;;
62654;SDS011;48717;55.556;37.816;2023-07-08T08:17:47;14.32;;;9.90;;
62654;SDS011;48717;55.556;37.816;2023-07-08T08:20:21;15.05;;;10.35;;
62654;SDS011;48717;55.556;37.816;2023-07-08T08:23:01;20.63;;;10.50;;
62654;SDS011;48717;55.556;37.816;2023-07-08T08:25:30;16.35;;;10.05;;
62654;SDS011;48717;55.556;37.816;2023-07-08T08:28:10;15.25;;;9.85;;
62654;SDS011;48717;55.556;37.816;2023-07-08T08:30:47;14.02;;;9.50;;
62654;SDS011;48717;55.556;37.816;2023-07-08T08:33:24;17.70;;;10.00;;
62654;SDS011;48717;55.556;37.816;2023-07-08T08:35:52;14.73;;;9.60;;
62654;SDS011;48717;55.556;37.816;2023-07-08T08:38:19;19.25;;;11.40;;
62654;SDS011;48717;55.556;37.816;2023-07-08T08:40:46;12.93;;;10.63;;
62654;SDS011;48717;55.556;37.816;2023-07-08T08:46:49;12.90;;;10.55;;
62654;SDS011;48717;55.556;37.816;2023-07-08T08:52:02;16.30;;;10.93;;
62654;SDS011;48717;55.556;37.816;2023-07-08T08:54:29;17.75;;;10.55;;
62654;SDS011;48717;55.556;37.816;2023-07-08T08:57:04;16.67;;;9.80;;
62654;SDS011;48717;55.556;37.816;2023-07-08T09:05:04;13.23;;;9.82;;
62654;SDS011;48717;55.556;37.816;2023-07-08T09:07:43;14.30;;;9.65;;
62654;SDS011;48717;55.556;37.816;2023-07-08T09:13:18;18.98;;;9.88;;
62654;SDS011;48717;55.556;37.816;2023-07-08T09:16:07;15.00;;;10.10;;
62654;SDS011;48717;55.556;37.816;2023-07-08T09:24:33;19.92;;;10.93;;
62654;SDS011;48717;55.556;37.816;2023-07-08T09:27:02;13.32;;;9.63;;
62654;SDS011;48717;55.556;37.816;2023-07-08T09:29:30;16.67;;;10.48;;
62654;SDS011;48717;55.556;37.816;2023-07-08T09:31:59;14.18;;;9.77;;
62654;SDS011;48717;55.556;37.816;2023-07-08T09:34:44;12.88;;;9.20;;
62654;SDS011;48717;55.556;37.816;2023-07-08T09:37:44;13.48;;;9.75;;
62654;SDS011;48717;55.556;37.816;2023-07-08T09:40:16;13.10;;;9.10;;
62654;SDS011;48717;55.556;37.816;2023-07-08T09:42:49;14.00;;;9.55;;
62654;SDS011;48717;55.556;37.816;2023-07-08T09:45:19;10.85;;;9.30;;
62654;SDS011;48717;55.556;37.816;2023-07-08T09:47:53;12.57;;;9.02;;
62654;SDS011;48717;55.556;37.816;2023-07-08T09:50:25;12.90;;;9.10;;
62654;SDS011;48717;55.556;37.816;2023-07-08T09:52:56;14.40;;;9.80;;
62654;SDS011;48717;55.556;37.816;2023-07-08T09:55:26;13.70;;;8.82;;
62654;SDS011;48717;55.556;37.816;2023-07-08T09:57:55;13.27;;;9.00;;
62654;SDS011;48717;55.556;37.816;2023-07-08T10:00:32;13.52;;;9.30;;
62654;SDS011;48717;55.556;37.816;2023-07-08T10:03:08;11.27;;;8.95;;
62654;SDS011;48717;55.556;37.816;2023-07-08T10:05:45;14.18;;;8.88;;
62654;SDS011;48717;55.556;37.816;2023-07-08T10:10:43;15.63;;;9.90;;
62654;SDS011;48717;55.556;37.816;2023-07-08T10:13:16;19.08;;;9.45;;
62654;SDS011;48717;55.556;37.816;2023-07-08T10:15:59;10.90;;;8.43;;
62654;SDS011;48717;55.556;37.816;2023-07-08T10:18:39;12.43;;;8.23;;
62654;SDS011;48717;55.556;37.816;2023-07-08T10:26:46;15.88;;;9.63;;
62654;SDS011;48717;55.556;37.816;2023-07-08T10:29:38;13.15;;;9.40;;
62654;SDS011;48717;55.556;37.816;2023-07-08T10:35:35;15.40;;;9.77;;
62654;SDS011;48717;55.556;37.816;2023-07-08T10:41:00;14.43;;;9.02;;
62654;SDS011;48717;55.556;37.816;2023-07-08T10:49:24;10.10;;;8.57;;
62654;SDS011;48717;55.556;37.816;2023-07-08T10:51:55;11.38;;;9.20;;
62654;SDS011;48717;55.556;37.816;2023-07-08T10:57:25;14.75;;;8.20;;
62654;SDS011;48717;55.556;37.816;2023-07-08T11:05:29;11.65;;;8.55;;
62654;SDS011;48717;55.556;37.816;2023-07-08T11:08:15;10.60;;;7.80;;
62654;SDS011;48717;55.556;37.816;2023-07-08T11:10:49;9.75;;;7.60;;
62654;SDS011;48717;55.556;37.816;2023-07-08T11:13:40;10.27;;;7.07;;
62654;SDS011;48717;55.556;37.816;2023-07-08T11:16:23;8.85;;;7.05;;
62654;SDS011;48717;55.556;37.816;2023-07-08T11:18:56;9.63;;;7.00;;
62654;SDS011;48717;55.556;37.816;2023-07-08T11:21:38;9.57;;;7.28;;
62654;SDS011;48717;55.556;37.816;2023-07-08T11:27:04;10.50;;;7.70;;
62654;SDS011;48717;55.556;37.816;2023-07-08T11:29:39;9.93;;;7.10;;
62654;SDS011;48717;55.556;37.816;2023-07-08T11:32:20;11.73;;;7.60;;
62654;SDS011;48717;55.556;37.816;2023-07-08T11:34:50;9.63;;;6.97;;
62654;SDS011;48717;55.556;37.816;2023-07-08T11:37:19;11.68;;;7.30;;
62654;SDS011;48717;55.556;37.816;2023-07-08T11:42:44;10.75;;;6.90;;
62654;SDS011;48717;55.556;37.816;2023-07-08T11:45:26;11.65;;;6.75;;
62654;SDS011;48717;55.556;37.816;2023-07-08T11:48:04;8.05;;;6.20;;
62654;SDS011;48717;55.556;37.816;2023-07-08T11:50:38;8.40;;;6.25;;
62654;SDS011;48717;55.556;37.816;2023-07-08T11:58:07;7.57;;;5.82;;
62654;SDS011;48717;55.556;37.816;2023-07-08T12:00:45;10.35;;;5.57;;
62654;SDS011;48717;55.556;37.816;2023-07-08T12:04:15;6.60;;;5.43;;
62654;SDS011;48717;55.556;37.816;2023-07-08T12:08:56;5.75;;;5.03;;
62654;SDS011;48717;55.556;37.816;2023-07-08T12:11:39;5.32;;;4.78;;
62654;SDS011;48717;55.556;37.816;2023-07-08T12:14:09;5.15;;;4.50;;
62654;SDS011;48717;55.556;37.816;2023-07-08T12:16:37;5.15;;;4.65;;
62654;SDS011;48717;55.556;37.816;2023-07-08T12:19:05;7.13;;;4.85;;
62654;SDS011;48717;55.556;37.816;2023-07-08T12:21:36;5.70;;;4.47;;
62654;SDS011;48717;55.556;37.816;2023-07-08T12:24:04;6.30;;;4.72;;
62654;SDS011;48717;55.556;37.816;2023-07-08T12:26:35;6.60;;;5.10;;
62654;SDS011;48717;55.556;37.816;2023-07-08T12:29:03;6.32;;;4.88;;
62654;SDS011;48717;55.556;37.816;2023-07-08T12:31:30;6.30;;;5.13;;
62654;SDS011;48717;55.556;37.816;2023-07-08T12:33:58;10.57;;;5.10;;
62654;SDS011;48717;55.556;37.816;2023-07-08T12:36:27;8.18;;;5.30;;
62654;SDS011;48717;55.556;37.816;2023-07-08T12:38:57;8.18;;;4.63;;
62654;SDS011;48717;55.556;37.816;2023-07-08T12:41:28;7.57;;;5.00;;
62654;SDS011;48717;55.556;37.816;2023-07-08T12:43:58;6.55;;;4.53;;
62654;SDS011;48717;55.556;37.816;2023-07-08T12:46:26;6.32;;;4.53;;
62654;SDS011;48717;55.556;37.816;2023-07-08T12:48:54;8.52;;;4.63;;
62654;SDS011;48717;55.556;37.816;2023-07-08T12:51:23;6.75;;;4.53;;
62654;SDS011;48717;55.556;37.816;2023-07-08T12:53:52;5.82;;;4.57;;
62654;SDS011;48717;55.556;37.816;2023-07-08T12:56:21;7.93;;;4.75;;
62654;SDS011;48717;55.556;37.816;2023-07-08T12:58:50;9.07;;;4.90;;
62654;SDS011;48717;55.556;37.816;2023-07-08T13:01:21;6.22;;;4.70;;
62654;SDS011;48717;55.556;37.816;2023-07-08T13:03:53;12.18;;;4.70;;
62654;SDS011;48717;55.556;37.816;2023-07-08T13:06:30;10.95;;;4.50;;
62654;SDS011;48717;55.556;37.816;2023-07-08T13:09:02;8.00;;;4.32;;
62654;SDS011;48717;55.556;37.816;2023-07-08T13:11:50;9.77;;;4.45;;
62654;SDS011;48717;55.556;37.816;2023-07-08T13:14:19;5.85;;;3.80;;
62654;SDS011;48717;55.556;37.816;2023-07-08T13:16:47;5.50;;;4.07;;
62654;SDS011;48717;55.556;37.816;2023-07-08T13:19:16;6.80;;;4.03;;
62654;SDS011;48717;55.556;37.816;2023-07-08T13:21:48;5.70;;;3.80;;
62654;SDS011;48717;55.556;37.816;2023-07-08T13:24:17;7.75;;;3.90;;
62654;SDS011;48717;55.556;37.816;2023-07-08T13:26:46;6.93;;;3.80;;
62654;SDS011;48717;55.556;37.816;2023-07-08T13:29:15;7.28;;;3.17;;
62654;SDS011;48717;55.556;37.816;2023-07-08T13:31:53;5.10;;;3.50;;
62654;SDS011;48717;55.556;37.816;2023-07-08T13:34:23;4.53;;;3.50;;
62654;SDS011;48717;55.556;37.816;2023-07-08T13:36:51;3.42;;;3.13;;
62654;SDS011;48717;55.556;37.816;2023-07-08T13:39:29;5.35;;;3.22;;
62654;SDS011;48717;55.556;37.816;2023-07-08T13:41:59;6.68;;;3.10;;
62654;SDS011;48717;55.556;37.816;2023-07-08T13:44:27;5.35;;;3.33;;
62654;SDS011;48717;55.556;37.816;2023-07-08T13:46:58;5.18;;;3.40;;
62654;SDS011;48717;55.556;37.816;2023-07-08T13:52:06;4.93;;;3.53;;
62654;SDS011;48717;55.556;37.816;2023-07-08T13:54:44;4.32;;;3.55;;
62654;SDS011;48717;55.556;37.816;2023-07-08T13:57:18;6.97;;;3.50;;
62654;SDS011;48717;55.556;37.816;2023-07-08T13:59:47;6.45;;;3.30;;
62654;SDS011;48717;55.556;37.816;2023-07-08T14:02:16;5.72;;;3.33;;
62654;SDS011;48717;55.556;37.816;2023-07-08T14:04:50;5.13;;;3.40;;
62654;SDS011;48717;55.556;37.816;2023-07-08T14:07:21;9.57;;;6.35;;
62654;SDS011;48717;55.556;37.816;2023-07-08T14:09:50;5.93;;;4.03;;
62654;SDS011;48717;55.556;37.816;2023-07-08T14:12:19;5.70;;;3.80;;
62654;SDS011;48717;55.556;37.816;2023-07-08T14:14:50;6.95;;;3.30;;
62654;SDS011;48717;55.556;37.816;2023-07-08T14:17:21;7.45;;;3.70;;
62654;SDS011;48717;55.556;37.816;2023-07-08T14:19:51;8.23;;;4.57;;
62654;SDS011;48717;55.556;37.816;2023-07-08T14:22:22;8.20;;;3.70;;
62654;SDS011;48717;55.556;37.816;2023-07-08T14:24:54;5.32;;;4.10;;
62654;SDS011;48717;55.556;37.816;2023-07-08T14:27:22;9.70;;;4.70;;
62654;SDS011;48717;55.556;37.816;2023-07-08T14:29:50;12.98;;;4.70;;
62654;SDS011;48717;55.556;37.816;2023-07-08T14:32:20;6.97;;;4.20;;
62654;SDS011;48717;55.556;37.816;2023-07-08T14:37:43;6.90;;;4.80;;
62654;SDS011;48717;55.556;37.816;2023-07-08T14:40:18;9.07;;;4.60;;
62654;SDS011;48717;55.556;37.816;2023-07-08T14:42:47;10.48;;;4.45;;
62654;SDS011;48717;55.556;37.816;2023-07-08T14:45:17;7.97;;;4.38;;
62654;SDS011;48717;55.556;37.816;2023-07-08T14:47:44;6.32;;;5.00;;
62654;SDS011;48717;55.556;37.816;2023-07-08T14:50:12;7.80;;;4.78;;
62654;SDS011;48717;55.556;37.816;2023-07-08T14:52:41;6.80;;;4.60;;
62654;SDS011;48717;55.556;37.816;2023-07-08T14:55:09;7.90;;;4.72;;
62654;SDS011;48717;55.556;37.816;2023-07-08T15:00:23;11.88;;;5.20;;
62654;SDS011;48717;55.556;37.816;2023-07-08T15:02:50;10.00;;;5.20;;
62654;SDS011;48717;55.556;37.816;2023-07-08T15:05:20;9.23;;;4.85;;
62654;SDS011;48717;55.556;37.816;2023-07-08T15:07:51;8.98;;;4.80;;
62654;SDS011;48717;55.556;37.816;2023-07-08T15:10:20;8.23;;;5.38;;
62654;SDS011;48717;55.556;37.816;2023-07-08T15:12:50;8.18;;;4.70;;
62654;SDS011;48717;55.556;37.816;2023-07-08T15:15:20;8.90;;;5.25;;
62654;SDS011;48717;55.556;37.816;2023-07-08T15:17:54;13.90;;;6.10;;
62654;SDS011;48717;55.556;37.816;2023-07-08T15:20:21;12.60;;;6.25;;
62654;SDS011;48717;55.556;37.816;2023-07-08T15:22:49;7.75;;;5.20;;
62654;SDS011;48717;55.556;37.816;2023-07-08T15:25:17;7.53;;;4.82;;
62654;SDS011;48717;55.556;37.816;2023-07-08T15:27:46;9.52;;;5.05;;
62654;SDS011;48717;55.556;37.816;2023-07-08T15:30:16;9.32;;;5.45;;
62654;SDS011;48717;55.556;37.816;2023-07-08T15:32:45;9.15;;;4.90;;
62654;SDS011;48717;55.556;37.816;2023-07-08T15:35:19;7.35;;;5.03;;
62654;SDS011;48717;55.556;37.816;2023-07-08T15:37:50;9.07;;;5.28;;
62654;SDS011;48717;55.556;37.816;2023-07-08T15:40:19;7.20;;;4.70;;
62654;SDS011;48717;55.556;37.816;2023-07-08T15:45:38;10.70;;;5.00;;
62654;SDS011;48717;55.556;37.816;2023-07-08T15:48:16;6.20;;;4.68;;
62654;SDS011;48717;55.556;37.816;2023-07-08T15:50:44;8.18;;;5.07;;
62654;SDS011;48717;55.556;37.816;2023-07-08T15:53:13;6.32;;;4.70;;
62654;SDS011;48717;55.556;37.816;2023-07-08T15:58:31;7.57;;;4.50;;
62654;SDS011;48717;55.556;37.816;2023-07-08T16:01:00;8.30;;;4.75;;
62654;SDS011;48717;55.556;37.816;2023-07-08T16:03:31;22.58;;;4.55;;
62654;SDS011;48717;55.556;37.816;2023-07-08T16:06:18;8.30;;;4.22;;
62654;SDS011;48717;55.556;37.816;2023-07-08T16:08:45;7.93;;;4.07;;
62654;SDS011;48717;55.556;37.816;2023-07-08T16:11:15;7.75;;;5.03;;